»·PEaware :: AAL225 KEUG-KSFO

AAL225 :: KEUG-KSFO

FLIGHT INFORMATION

Flight Status: Arrived
Operator:
American Airlines
More flights by this operator :: More flights under this callsign
Pilot: Michael R. (16974)
Aircraft: AIRBUS A320
(A320)
More flights by this aircraft type
Origin: KEUG Mahlon Sweet
United States
Destination: KSFO San Francisco Intl
United States
More flights between these airports :: More routes between these airports
Route: RBG MLBEC BDEGA2
File this flight plan on PilotEdge
Remarks:
Altitude:
(Current/Filed)
33,000ft
Speed:
(Current/Filed)
410kts
Departed: 03-Sep-18 12:08 PM
Arrived: 03-Sep-18 01:17 PM
Distance/Time
Traveled:
392nm/1:09
Distance/Time
To Go:
Arrived

Flight Plot

Page will automatically refresh every two minutes.

Flight plan parsing failed; only flown route is shown


Map Options




Map Legend


Flown Route
Filed Route
Departure Airport
Arrival Airport
Navaid (VOR, NDB)
Fix

Horizontal Profiles

Position Reports

Time Latitude Longitude Heading Altitude Ground
Speed
03-Sep-18 11:43 44.119501 -123.214283 57 373ft 0kts
03-Sep-18 11:44 44.119501 -123.214283 57 373ft 0kts
03-Sep-18 11:45 44.119501 -123.214283 57 373ft 0kts
03-Sep-18 11:46 44.119501 -123.214283 57 373ft 0kts
03-Sep-18 11:47 44.119501 -123.214283 57 373ft 0kts
03-Sep-18 11:48 44.119501 -123.214283 57 373ft 0kts
03-Sep-18 11:48 44.119501 -123.214283 57 373ft 0kts
03-Sep-18 11:50 44.119501 -123.214283 57 373ft 0kts
03-Sep-18 11:51 44.119501 -123.214283 57 373ft 0kts
03-Sep-18 11:51 44.119501 -123.214283 57 373ft 0kts
03-Sep-18 11:52 44.119501 -123.214283 57 373ft 0kts
03-Sep-18 11:54 44.119501 -123.214283 57 373ft 0kts
03-Sep-18 11:54 44.119501 -123.214283 57 373ft 0kts
03-Sep-18 11:55 44.119501 -123.214283 57 373ft 0kts
03-Sep-18 11:56 44.119501 -123.214283 57 373ft 0kts
03-Sep-18 11:58 44.119501 -123.214283 57 373ft 0kts
03-Sep-18 11:58 44.119501 -123.214283 57 373ft 0kts
03-Sep-18 11:59 44.119364 -123.214593 57 373ft 2kts
03-Sep-18 12:00 44.119018 -123.215137 358 372ft 2kts
03-Sep-18 12:01 44.118799 -123.214819 272 373ft 0kts
03-Sep-18 12:02 44.118799 -123.214819 272 373ft 0kts
03-Sep-18 12:03 44.117997 -123.216403 208 372ft 13kts
03-Sep-18 12:04 44.114029 -123.216873 193 373ft 13kts
03-Sep-18 12:05 44.113672 -123.217662 269 370ft 0kts
03-Sep-18 12:06 44.113672 -123.217662 269 370ft 0kts
03-Sep-18 12:07 44.113672 -123.217662 269 370ft 0kts
03-Sep-18 12:08 44.115190 -123.218855 359 370ft 37kts
03-Sep-18 12:09 44.158602 -123.218171 0 1883ft 220kts
03-Sep-18 12:10 44.224628 -123.216179 0 5524ft 261kts
03-Sep-18 12:11 44.295011 -123.231280 312 8801ft 272kts
03-Sep-18 12:12 44.302330 -123.335745 242 11092ft 307kts
03-Sep-18 12:13 44.217240 -123.375535 179 13452ft 365kts
03-Sep-18 12:14 44.114033 -123.372173 180 16279ft 379kts
03-Sep-18 12:15 44.007459 -123.369684 180 18763ft 393kts
03-Sep-18 12:16 43.895968 -123.367277 180 20734ft 412kts
03-Sep-18 12:17 43.780378 -123.364790 180 22436ft 429kts
03-Sep-18 12:18 43.659168 -123.362195 180 23796ft 448kts
03-Sep-18 12:19 43.533511 -123.359480 180 25397ft 454kts
03-Sep-18 12:20 43.407948 -123.356782 180 27218ft 453kts
03-Sep-18 12:21 43.281672 -123.354111 181 28821ft 455kts
03-Sep-18 12:22 43.155656 -123.349415 177 30365ft 458kts
03-Sep-18 12:23 43.028470 -123.337036 177 31709ft 461kts
03-Sep-18 12:24 42.900913 -123.324677 176 33073ft 460kts
03-Sep-18 12:25 42.772903 -123.312380 176 33140ft 478kts
03-Sep-18 12:26 42.640359 -123.299614 176 33118ft 479kts
03-Sep-18 12:27 42.507895 -123.286925 176 33100ft 479kts
03-Sep-18 12:28 42.375119 -123.274277 176 33101ft 479kts
03-Sep-18 12:29 42.243180 -123.261761 176 33101ft 479kts
03-Sep-18 12:30 42.110827 -123.249261 176 33101ft 479kts
03-Sep-18 12:31 41.978283 -123.236791 176 33101ft 479kts
03-Sep-18 12:32 41.846857 -123.224484 176 33103ft 479kts
03-Sep-18 12:33 41.715483 -123.212227 176 33100ft 479kts
03-Sep-18 12:34 41.582902 -123.199909 176 33080ft 479kts
03-Sep-18 12:35 41.450235 -123.187635 176 33088ft 479kts
03-Sep-18 12:36 41.317358 -123.175389 176 33093ft 479kts
03-Sep-18 12:37 41.185006 -123.163246 176 33096ft 479kts
03-Sep-18 12:38 41.051659 -123.151065 178 33029ft 488kts
03-Sep-18 12:39 40.915343 -123.138676 181 32928ft 493kts
03-Sep-18 12:40 40.782386 -123.126594 180 32929ft 492kts
03-Sep-18 12:41 40.646177 -123.114297 180 32926ft 492kts
03-Sep-18 12:42 40.510491 -123.102097 180 32926ft 492kts
03-Sep-18 12:43 40.374128 -123.089884 180 32926ft 492kts
03-Sep-18 12:44 40.238362 -123.077776 180 32932ft 492kts
03-Sep-18 12:45 40.102213 -123.065679 180 32940ft 492kts
03-Sep-18 12:46 39.966238 -123.053647 180 32950ft 491kts
03-Sep-18 12:47 39.831715 -123.041795 180 32948ft 491kts
03-Sep-18 12:48 39.696593 -123.029934 180 32953ft 491kts
03-Sep-18 12:49 39.560788 -123.018058 180 32954ft 491kts
03-Sep-18 12:50 39.425079 -123.006240 180 32954ft 491kts
03-Sep-18 12:51 39.289171 -122.994449 180 32954ft 491kts
03-Sep-18 12:52 39.153444 -122.982721 180 32954ft 491kts
03-Sep-18 12:53 39.017868 -122.971048 180 32956ft 490kts
03-Sep-18 12:54 38.883829 -122.958942 178 32962ft 482kts
03-Sep-18 12:55 38.764610 -122.926081 172 30727ft 481kts
03-Sep-18 12:56 38.636689 -122.888226 172 28073ft 446kts
03-Sep-18 12:57 38.523867 -122.854864 172 26896ft 403kts
03-Sep-18 12:58 38.416986 -122.823543 171 24898ft 389kts
03-Sep-18 12:59 38.313730 -122.793295 170 22890ft 374kts
03-Sep-18 13:00 38.214961 -122.764430 169 20923ft 360kts
03-Sep-18 13:01 38.119416 -122.736650 168 18991ft 346kts
03-Sep-18 13:02 38.027645 -122.710038 167 17121ft 334kts
03-Sep-18 13:03 37.935572 -122.683445 166 15199ft 342kts
03-Sep-18 13:04 37.855914 -122.627004 139 13309ft 336kts
03-Sep-18 13:05 37.785641 -122.552362 139 11778ft 317kts
03-Sep-18 13:07 37.722028 -122.484949 139 11071ft 293kts
03-Sep-18 13:08 37.659900 -122.418891 139 11063ft 292kts
03-Sep-18 13:09 37.595358 -122.357526 153 10829ft 291kts
03-Sep-18 13:10 37.524636 -122.315664 154 9563ft 289kts
03-Sep-18 13:11 37.474676 -122.243052 119 7833ft 270kts
03-Sep-18 13:12 37.440043 -122.166022 119 6353ft 241kts
03-Sep-18 13:13 37.428220 -122.093711 43 4848ft 218kts
03-Sep-18 13:14 37.478449 -122.106903 323 4066ft 197kts
03-Sep-18 13:15 37.521908 -122.150598 311 3433ft 204kts
03-Sep-18 13:16 37.553643 -122.212858 302 2247ft 221kts
03-Sep-18 13:17 37.583173 -122.285193 294 1012ft 229kts
03-Sep-18 13:18 37.608289 -122.350572 302 227ft 176kts
03-Sep-18 13:19 37.618922 -122.377068 265 18ft 7kts
03-Sep-18 13:20 37.618738 -122.382341 164 18ft 9kts
03-Sep-18 13:21 37.618321 -122.381982 140 18ft 0kts
03-Sep-18 13:22 37.618321 -122.381982 140 18ft 0kts
03-Sep-18 13:23 37.618321 -122.381982 140 18ft 0kts
03-Sep-18 13:24 37.618321 -122.381982 140 18ft 0kts
03-Sep-18 13:25 37.618321 -122.381982 140 18ft 0kts
03-Sep-18 13:26 37.618321 -122.381982 140 18ft 0kts
03-Sep-18 13:27 37.618321 -122.381982 140 18ft 0kts
03-Sep-18 13:28 37.618321 -122.381982 140 18ft 0kts
03-Sep-18 13:29 37.618321 -122.381982 140 18ft 0kts
03-Sep-18 13:30 37.618321 -122.381982 140 18ft 0kts
03-Sep-18 13:31 37.618321 -122.381982 140 18ft 0kts
03-Sep-18 13:32 37.618321 -122.381982 140 18ft 0kts
03-Sep-18 13:33 37.618321 -122.381982 140 18ft 0kts

Navigation Log

Ident Type
Flight plan parsing failed, navigation log unavailable